Main page
METAR-TAF:

METAR-TAF

Airports :

Çorlu, Turkey

Tekirdağ Çorlu Airport

latitude: 41-08N, longitude: 027-55E, elevation: 173 m

Current weather observation

The report was made 45 minutes ago, at 20:50 UTC
Wind 8 kt from the North/Northwest
Temperature -2°C
Humidity 93%
Pressure 1030 hPa
Visibility 10 km or more
no clouds below 1500 m and no cumulonimbus

METAR: LTBU 212050Z 33008KT CAVOK M02/M03 Q1030 RMK RWY23 35006KT

Time: 23:35 (21:35 UTC)

Forecast

The report was made 4 hours and 55 minutes ago, at 16:40 UTC
Forecast valid from 21 at 18 UTC to 22 at 18 UTC
Wind 6 kt from the North/Northeast
Visibility 10 km or more
no clouds below 1500 m and no cumulonimbus
Becoming
from 22 at 00 UTC to 22 at 03 UTC
Visibility: 4000 m
Scattered clouds at a height of 1000 ft
Broken clouds at a height of 3000 ft
mist
Becoming
from 22 at 05 UTC to 22 at 08 UTC
Visibility 10 km or more
Scattered clouds at a height of 3000 ft

TAF: LTBU 211640Z 2118/2218 02006KT CAVOK BECMG 2200/2203 4000 BR SCT010 BKN030 BECMG 2205/2208 9999 NSW SCT030

Weather observations and forecasts of more than 4000 airports (METAR and TAF reports).

The available stations are represented by yellow and red dots on the map.

Hover mouse over dot to see the name of the station.

Then click to see weather observations and forecasts.

To change the map : click on the green buttons with a black cross to zoom in, on the green button with a dash to zoom out, or on the green arrows for adjacent maps.


METAR-TAF: